Tiempo atmosférico en la estación meteorológica de Badajoz, Badajoz (175 m.)



Fecha
DESCASC
Temp. máxima en grados centígrados (hora)
DESCASC
Temp. mínima en grados centígrados (hora)
DESCASC
Temp. media en grados centígrados
DESCASC
Racha de viento máxima en m/sg (hora)
DESCASC
Velocidad máxima media en intervalos de 10 minutos(hora)
DESCASC
Precipitaciones diarias en mm
DESCASC
Precipitaciones de 00:00 a 06:00 en mm
DESCASC
Precipitaciones de 06:00 a 12:00 en mm
DESCASC
Precipitaciones de 12:00 a 18:00 en mm
DESCASC
Precipitaciones de 18:00 a 24:00 en mm
DESCASC
18-01-2018 17.2 (15:50) 3.5 (09:00) 10.4 6.94 (16:40) 5.28 (16:40) 0 0 0 0 0
17-01-2018 17.5 (15:40) 5.7 (09:30) 11.6 7.5 (00:40) 4.72 (12:10) 0 0 0 0 0
16-01-2018 13.9 (14:40) 2.3 (01:00) 8.1 8.33 (15:10) 5.28 (16:00) 0 0 0 0 0
15-01-2018 14.5 (16:50) -0.7 (08:40) 6.9 3.61 (11:50) 2.5 (11:40) 0 0 0 0 0
14-01-2018 13.5 (15:40) 2.2 (00:00) 7.9 6.11 (12:50) 4.17 (12:40) 0 0 0 0 0
13-01-2018 14.7 (15:20) 4.3 (00:00) 9.5 12.22 (17:10) 7.5 (14:20) 7.2 0 7 0.2 0
12-01-2018 11.6 (16:20) -0.2 (00:00) 5.7 2.78 (11:50) 1.39 (11:50) 0 0 0 0 0
11-01-2018 14.9 (16:00) 3.9 (00:00) 9.4 11.67 (16:20) 6.94 (15:30) 0 0 0 0 0
10-01-2018 15 (15:00) 7.6 (00:00) 11.3 15.28 (15:50) 7.22 (16:00) 1.2 0.2 0 1 0
09-01-2018 10.4 (23:30) 0.9 (00:00) 5.6 8.61 (14:00) 4.44 (14:00) 6.8 0 1 3.8 2
08-01-2018 12.4 (15:40) 3.1 (00:00) 7.7 6.11 (07:40) 4.17 (12:00) 2.8 2.8 0 0 0
07-01-2018 9.9 (13:10) 3.9 (00:00) 6.9 8.89 (04:10) 5.56 (03:00) 2.4 0 0 0 2.4
06-01-2018 12.5 (15:50) 4 (00:00) 8.3 12.22 (15:20) 7.22 (13:20) 0 0 0 0 0
05-01-2018 13.2 (11:30) 9 (00:00) 11.1 12.22 (11:10) 6.67 (11:40) 11.8 0.2 0.2 7.4 4
04-01-2018 16.1 (13:30) 9.4 (09:00) 12.8 7.22 (16:10) 4.72 (16:20) 0 0 0 0 0
03-01-2018 17.2 (16:40) 10.5 (00:00) 13.9 6.39 (19:40) 4.72 (19:40) 0 0 0 0 0
02-01-2018 15.3 (13:40) 3.1 (00:00) 9.2 7.78 (13:40) 4.72 (13:50) 0 0 0 0 0
01-01-2018 15.7 (15:30) 2.5 (00:00) 9.1 7.78 (15:10) 5 (15:10) 0 0 0 0 0
31-12-2017 15.6 (14:50) 6.4 (00:00) 11 13.06 (15:40) 6.67 (15:20) 0.2 0 0 0.2 0
30-12-2017 18.6 (15:50) 8.7 (00:00) 13.7 4.44 (13:20) 2.78 (13:20) 0 0 0 0 0
29-12-2017 16.8 (15:20) 13.3 (00:00) 15 7.5 (12:30) 4.17 (12:30) 0 0 0 0 0
28-12-2017 17.3 (15:40) 10.7 (00:00) 14 12.5 (16:00) 7.5 (15:50) 0 0 0 0 0
27-12-2017 15.1 (16:20) 10.7 (00:00) 12.9 14.17 (03:30) 7.5 (16:30) 4.4 4.2 0.2 0 0
26-12-2017 12.3 (16:10) 6.5 (00:00) 9.4 11.11 (23:10) 5.83 (22:30) 1.4 0.2 0 0 1.2
25-12-2017 14.6 (15:40) 6.3 (00:00) 10.5 8.61 (15:10) 5 (15:20) 1.4 0.4 0.2 0 0.8
24-12-2017 16.3 (16:00) 2.9 (00:00) 9.6 5.28 (14:00) 2.5 (14:50) 0 0 0 0 0

Gráficas

Temp. máximas Temp. mínimas Temp. medias Precipitaciones Rachas de viento máximas Velocidades máximas media en intervalos de 10 minutos

Datos horarios

Fecha y hora oficial Temperatura (ºC) Velocidad del viento (km/h) Dirección del viento Racha (km/h) Dirección de racha Precipitación (mm) Presión (hPa) Tendencia (hPa) Humedad (%)
2018-01-22 23:00:00 8.4 0 Calma 9 Este 0 -- -- 100
2018-01-22 22:00:00 8.2 4 Este 10 Este 0 -- -- 100
2018-01-22 21:00:00 8.1 3 Este 10 Este 0 -- -- 99
2018-01-22 20:00:00 8.3 3 Este 9 Este 0 -- -- 95
2018-01-22 19:00:00 10.1 3 Sudeste 9 Sur 0 -- -- 90
2018-01-22 18:00:00 11.7 6 Sur 9 Sur 0 -- -- 87
2018-01-22 17:00:00 13.1 4 Sur 8 Sur 0 -- -- 82
2018-01-22 16:00:00 10.9 3 Sudeste 8 Sur 0 -- -- 91
2018-01-22 15:00:00 9.7 2 Sudeste 11 Sudoeste 0 -- -- 95
2018-01-22 14:00:00 9 4 Oeste 9 Sudoeste 0 -- -- 96
2018-01-22 13:00:00 8.5 3 Sur 9 Sudoeste 0 -- -- 99
2018-01-22 12:00:00 8 3 Oeste 7 Sudoeste 0 -- -- 100
2018-01-22 11:00:00 7.6 3 Oeste 8 Oeste 0 -- -- 100
2018-01-22 10:00:00 7.6 5 Noroeste 8 Noroeste 0 -- -- 100
2018-01-22 09:00:00 7.9 0 Calma 8 Noroeste 0 -- -- 100
2018-01-22 08:00:00 8.2 2 Oeste 9 Noroeste 0 -- -- 100
2018-01-22 07:00:00 8.3 4 Oeste 12 Oeste 0 -- -- 100
2018-01-22 06:00:00 8.1 0 Calma 5 Noroeste 0 -- -- 100
2018-01-22 05:00:00 7.6 4 Noroeste 8 Noroeste 0 -- -- 100
2018-01-22 04:00:00 6.3 3 Sur 6 Norte 0 -- -- 100
2018-01-22 03:00:00 4.3 2 Norte 4 Norte 0 -- -- 98
2018-01-22 02:00:00 5.2 0 Calma 4 Oeste 0 -- -- 95
2018-01-22 01:00:00 6.5 3 Sur 5 Sudoeste 0 -- -- 94
2018-01-22 00:00:00 8 3 Sudoeste 5 Sudoeste 0 -- -- 92
2018-01-21 23:00:00 9.8 3 Sudoeste 13 Noroeste 0 -- -- 91
2018-01-21 22:00:00 10.9 5 Oeste 15 Noroeste 0 -- -- 90
2018-01-21 21:00:00 11.9 4 Oeste 21 Oeste 0 -- -- 86
2018-01-21 20:00:00 12.8 12 Oeste 21 Oeste 0 -- -- 83
2018-01-21 19:00:00 14.6 6 Sudoeste 14 Oeste 0 -- -- 77
2018-01-21 18:00:00 16.2 8 Oeste 15 Noroeste 0 -- -- 72
2018-01-21 17:00:00 17.5 9 Oeste 16 Oeste 0 -- -- 65
2018-01-21 16:00:00 16.8 6 Sudoeste 15 Sur 0 -- -- 70
2018-01-21 15:00:00 15.9 9 Oeste 16 Sudoeste 0 -- -- 73
2018-01-21 14:00:00 14.5 6 Sudoeste 14 Sudoeste 0 -- -- 77
2018-01-21 13:00:00 12.5 4 Sudoeste 9 Oeste 0 -- -- 84
2018-01-21 12:00:00 8.8 4 Sudoeste 6 Sudoeste 0 -- -- 100
2018-01-21 11:00:00 7.2 3 Sur 6 Sudeste 0 -- -- 100
2018-01-21 10:00:00 5.6 3 Sudeste 6 Sudeste 0 -- -- 100
2018-01-21 09:00:00 4.4 4 Sur 8 Sudoeste 0 -- -- 100
2018-01-21 08:00:00 5.1 2 Sur 10 Sudoeste 0 -- -- 99
2018-01-21 07:00:00 4 4 Oeste 9 Oeste 0 -- -- 100
2018-01-21 06:00:00 2.7 0 Calma -- -- 0 -- -- 97
2018-01-21 05:00:00 3.1 0 Calma 4 Sudoeste 0 -- -- 96
2018-01-21 04:00:00 4.3 3 Sur 7 Sudoeste 0 -- -- 97
2018-01-21 03:00:00 4.6 2 Sudoeste 6 Sudoeste 0 -- -- 93
2018-01-21 02:00:00 6 2 Oeste 4 Noroeste 0 -- -- 90
2018-01-21 01:00:00 7.7 0 Calma 19 Noroeste 0 -- -- 92
2018-01-21 00:00:00 8.6 11 Noroeste 22 Noroeste 0 -- -- 91
2018-01-20 23:00:00 9.1 15 Oeste 22 Noroeste 0 -- -- 88
2018-01-20 22:00:00 10.1 10 Oeste 17 Oeste 0 -- -- 84
2018-01-20 21:00:00 10.7 11 Oeste 21 Oeste 0 -- -- 83
2018-01-20 20:00:00 10.8 6 Oeste 12 Oeste 0 -- -- 82
2018-01-20 19:00:00 12 8 Oeste 16 Oeste 0 -- -- 78
2018-01-20 18:00:00 13.7 11 Oeste 21 Oeste 0 -- -- 69
2018-01-20 17:00:00 16.1 8 Noroeste 25 Oeste 0 -- -- 55
2018-01-20 16:00:00 16.8 5 Oeste 13 Sudoeste 0 -- -- 44
2018-01-20 15:00:00 15.8 9 Sudoeste 20 Sudoeste 0 -- -- 60
2018-01-20 14:00:00 14.7 7 Sudoeste 12 Oeste 0 -- -- 67
2018-01-20 13:00:00 11.9 6 Sudoeste 10 Sudoeste 0 -- -- 77
2018-01-20 12:00:00 7.8 5 Sudoeste 12 Sur 0 -- -- 92
2018-01-20 11:00:00 5 4 Sudoeste 9 Sudoeste 0 -- -- 100
2018-01-20 10:00:00 1.7 0 Calma 4 Noroeste 0 -- -- 100
2018-01-20 09:00:00 0.4 2 Noroeste 3 Noroeste 0 -- -- 99
2018-01-20 08:00:00 0.8 0 Calma 3 Norte 0 -- -- 99
2018-01-20 07:00:00 0.9 0 Calma 4 Sudoeste 0 -- -- 98
2018-01-20 06:00:00 1.2 2 Sudoeste 6 Oeste 0 -- -- 97
2018-01-20 05:00:00 1.8 3 Oeste 5 Sudoeste 0 -- -- 95
2018-01-20 04:00:00 2.7 2 Sudoeste 4 Noroeste 0 -- -- 97
2018-01-20 03:00:00 2.8 0 Calma 3 Norte 0 -- -- 96
2018-01-20 02:00:00 3.7 0 Calma 5 Oeste 0 -- -- 94
2018-01-20 01:00:00 4.5 0 Calma 8 Sur 0 -- -- 94
2018-01-20 00:00:00 4.9 3 Noroeste 5 Oeste 0 -- -- 91
2018-01-19 23:00:00 6.1 2 Noroeste 6 Norte 0 -- -- 89
2018-01-19 22:00:00 7.2 0 Calma 10 Noroeste 0 -- -- 88
2018-01-19 21:00:00 7.7 6 Norte 10 Noroeste 0 -- -- 79
2018-01-19 20:00:00 10.7 5 Norte 13 Norte 0 -- -- 68
2018-01-19 19:00:00 14 4 Norte 8 Noroeste 0 -- -- 61
2018-01-19 18:00:00 17.4 0 Calma 12 Norte 0 -- -- 55
2018-01-19 17:00:00 19 9 Norte 19 Norte 0 -- -- 51
2018-01-19 16:00:00 19.9 5 Norte 12 Nordeste 0 -- -- 48
2018-01-19 15:00:00 18.8 5 Norte 16 Nordeste 0 -- -- 51
2018-01-19 14:00:00 17.6 5 Norte 14 Noroeste 0 -- -- 60
2018-01-19 13:00:00 14.4 7 Nordeste 15 Nordeste -- -- -- 65
2018-01-19 12:00:00 -- 3 Este 8 Nordeste 0 -- -- --
2018-01-19 11:00:00 7.1 4 Norte 9 Norte 0 -- -- 100
2018-01-19 10:00:00 2.9 2 Noroeste 4 Este 0 -- -- 100
2018-01-19 09:00:00 2.1 2 Este 4 Sudoeste 0 -- -- 99
2018-01-19 08:00:00 2 3 Noroeste 5 Noroeste 0 -- -- 97
2018-01-19 07:00:00 2.1 0 Calma 6 Noroeste 0 -- -- 97
2018-01-19 06:00:00 2 0 Calma 3 Noroeste 0 -- -- 96
2018-01-19 05:00:00 2.6 2 Noroeste 7 Noroeste 0 -- -- 94
2018-01-19 04:00:00 3.5 3 Oeste 5 Oeste 0 -- -- 92
2018-01-19 03:00:00 3.8 4 Norte 6 Norte 0 -- -- 90
2018-01-19 02:00:00 4.8 5 Norte 9 Noroeste 0 -- -- 89
2018-01-19 01:00:00 4.7 5 Norte 12 Norte 0 -- -- 90
2018-01-19 00:00:00 5.3 4 Norte 11 Norte 0 -- -- 90
2018-01-18 23:00:00 5.6 6 Norte 9 Norte 0 -- -- 90
2018-01-18 22:00:00 6.2 6 Noroeste 8 Noroeste 0 -- -- 85
2018-01-18 21:00:00 7.9 3 Nordeste 11 Noroeste 0 -- -- 79
2018-01-18 20:00:00 8.8 7 Norte 12 Norte 0 -- -- 79
2018-01-18 19:00:00 11.7 7 Norte 10 Norte 0 -- -- 71
2018-01-18 18:00:00 14.7 6 Nordeste 24 Norte 0 -- -- 60
2018-01-18 17:00:00 16.5 18 Norte 25 Norte 0 -- -- 52
2018-01-18 16:00:00 17.2 15 Norte 22 Norte 0 -- -- 49
2018-01-18 15:00:00 16.9 13 Norte 20 Nordeste 0 -- -- 57
2018-01-18 14:00:00 15.6 10 Nordeste 16 Norte 0 -- -- 59
2018-01-18 13:00:00 13.9 10 Nordeste 19 Nordeste 0 -- -- 65
2018-01-18 12:00:00 11.2 10 Nordeste 17 Nordeste 0 -- -- 80
2018-01-18 11:00:00 8.2 8 Nordeste 15 Nordeste 0 -- -- 96
2018-01-18 10:00:00 5.3 6 Nordeste 11 Nordeste 0 -- -- 100
2018-01-18 09:00:00 3.5 6 Nordeste 10 Nordeste 0 -- -- 100
2018-01-18 08:00:00 3.8 4 Nordeste 7 Nordeste 0 -- -- 99
2018-01-18 07:00:00 4.6 3 Nordeste 13 Nordeste 0 -- -- 99
2018-01-18 06:00:00 3.7 6 Norte 11 Norte 0 -- -- 98
2018-01-18 05:00:00 4.7 2 Norte 13 Norte 0 -- -- 97
2018-01-18 04:00:00 5.3 5 Norte 11 Este 0 -- -- 98
2018-01-18 03:00:00 5.8 7 Nordeste 15 Norte 0 -- -- 98
2018-01-18 02:00:00 6.1 7 Nordeste 12 Norte 0 -- -- 98
2018-01-18 01:00:00 7.1 6 Este 12 Nordeste 0 -- -- 99
2018-01-18 00:00:00 6.1 5 Norte 9 Norte 0 -- -- 96
2018-01-17 23:00:00 6.7 3 Norte 8 Nordeste 0 -- -- 94
2018-01-17 22:00:00 7.9 4 Norte 9 Norte 0 -- -- 91
2018-01-17 21:00:00 9.7 4 Nordeste 10 Este 0 -- -- 89
2018-01-17 20:00:00 11.4 5 Este 13 Este 0 -- -- 85
2018-01-17 19:00:00 12.8 5 Este 12 Sudeste 0 -- -- 80
2018-01-17 18:00:00 14.6 5 Este 13 Este 0 -- -- 72
2018-01-17 17:00:00 16.7 6 Este 13 Este 0 -- -- 65
2018-01-17 16:00:00 17.4 5 Este 17 Nordeste 0 -- -- 62
2018-01-17 15:00:00 17.2 7 Nordeste 21 Norte 0 -- -- 62
2018-01-17 14:00:00 17.2 13 Nordeste 23 Nordeste 0 -- -- 59
2018-01-17 13:00:00 16.5 12 Nordeste 27 Norte 0 -- -- 66
2018-01-17 12:00:00 13.8 16 Norte 26 Norte 0 -- -- 81
2018-01-17 11:00:00 7.5 3 Oeste 9 Sur 0 -- -- 100
2018-01-17 10:00:00 5.8 4 Sur 8 Sudoeste 0 -- -- 100
2018-01-17 09:00:00 6.2 3 Oeste 7 Sudoeste 0 -- -- 100
2018-01-17 08:00:00 7.3 3 Oeste 8 Oeste 0 -- -- 100
2018-01-17 07:00:00 8.8 8 Noroeste 12 Oeste 0 -- -- 100
2018-01-17 06:00:00 9.1 9 Noroeste 18 Noroeste 0 -- -- 100
2018-01-17 05:00:00 7.9 5 Norte 13 Norte 0 -- -- 100
2018-01-17 04:00:00 6.5 3 Norte 5 Norte 0 -- -- 96
2018-01-17 03:00:00 8.4 3 Noroeste 5 Norte 0 -- -- 93
2018-01-17 02:00:00 10.6 4 Nordeste 17 Noroeste 0 -- -- 95
2018-01-17 01:00:00 11.3 10 Noroeste 27 Noroeste 0 -- -- 96
2018-01-17 00:00:00 10.5 5 Noroeste 11 Noroeste 0 -- -- 94
2018-01-16 23:00:00 11.7 7 Oeste 17 Noroeste 0 -- -- 92
2018-01-16 22:00:00 12.3 10 Noroeste 22 Noroeste 0 -- -- 91
2018-01-16 21:00:00 12.5 13 Noroeste 23 Oeste 0 -- -- 91
2018-01-16 20:00:00 12.5 10 Oeste 18 Oeste 0 -- -- 91
2018-01-16 19:00:00 12.6 10 Oeste 22 Oeste 0 -- -- 90
2018-01-16 18:00:00 12.8 11 Oeste 24 Noroeste 0 -- -- 88
2018-01-16 17:00:00 13 15 Oeste 29 Noroeste 0 -- -- 87
2018-01-16 16:00:00 13.1 19 Oeste 30 Oeste 0 -- -- 86
2018-01-16 15:00:00 13.8 15 Noroeste 27 Noroeste 0 -- -- 84
2018-01-16 14:00:00 13.3 8 Noroeste 17 Oeste 0 -- -- 85
2018-01-16 13:00:00 11.5 3 Sur 9 Sur 0 -- -- 84
2018-01-16 12:00:00 9.4 3 Sudoeste 7 Oeste 0 -- -- 86
2018-01-16 11:00:00 6.4 4 Sudoeste 7 Sudoeste 0 -- -- 89
2018-01-16 10:00:00 5.1 4 Sudoeste 7 Sudoeste 0 -- -- 92
2018-01-16 09:00:00 4.2 5 Sudoeste 11 Sudoeste 0 -- -- 95
2018-01-16 08:00:00 3.8 7 Oeste 11 Sudoeste 0 -- -- 96
2018-01-16 07:00:00 3.8 0 Calma 6 Sudoeste 0 -- -- 94
2018-01-16 06:00:00 3.5 0 Calma 4 Noroeste 0 -- -- 94
2018-01-16 05:00:00 4.6 2 Sudoeste 9 Sur 0 -- -- 90
2018-01-16 04:00:00 4.4 4 Sudoeste 8 Sur 0 -- -- 91
2018-01-16 03:00:00 3.6 2 Norte 6 Sudoeste 0 -- -- 95
2018-01-16 02:00:00 3.1 2 Oeste 5 Sur 0 -- -- 96
2018-01-16 01:00:00 2.3 3 Sudoeste 6 Sudoeste 0 -- -- 95
2018-01-16 00:00:00 3 2 Sudoeste 5 Sudoeste 0 -- -- 93
2018-01-15 23:00:00 3.4 2 Sudoeste 4 Sur 0 -- -- 91
2018-01-15 22:00:00 4.4 4 Sudoeste 6 Sur 0 -- -- 88
2018-01-15 21:00:00 5.5 2 Sur 4 Sudeste 0 -- -- 83
2018-01-15 20:00:00 6.7 2 Noroeste 5 Sur 0 -- -- 78
2018-01-15 19:00:00 9.3 4 Sur 5 Sur 0 -- -- 71
2018-01-15 18:00:00 12.1 3 Sur 6 Sudeste 0 -- -- 55
2018-01-15 17:00:00 14.3 3 Sur 10 Sur 0 -- -- 47
2018-01-15 16:00:00 14.3 2 Norte 9 Este 0 -- -- 45
2018-01-15 15:00:00 13.6 3 Norte 8 Noroeste 0 -- -- 54
2018-01-15 14:00:00 12.3 2 Norte 9 Nordeste 0 -- -- 59
2018-01-15 13:00:00 10.3 4 Nordeste 10 Este 0 -- -- 63
2018-01-15 12:00:00 7.9 4 Nordeste 13 Norte 0 -- -- 77
2018-01-15 11:00:00 2.9 3 Noroeste 5 Norte 0 -- -- 100
2018-01-15 10:00:00 0.2 0 Calma 6 Noroeste 0 -- -- 100
2018-01-15 09:00:00 -0.7 3 Noroeste 4 Oeste 0 -- -- 98
2018-01-15 08:00:00 -0.4 0 Calma 3 Oeste 0 -- -- 98
2018-01-15 07:00:00 0 3 Noroeste 7 Norte 0 -- -- 97
2018-01-15 06:00:00 0.4 0 Calma 3 Este 0 -- -- 97
2018-01-15 05:00:00 0.4 2 Norte 5 Norte 0 -- -- 97
2018-01-15 04:00:00 0.3 4 Norte 7 Norte 0 -- -- 96
2018-01-15 03:00:00 1 4 Noroeste 6 Norte 0 -- -- 97
2018-01-15 02:00:00 1.1 6 Norte 8 Norte 0 -- -- 96
2018-01-15 01:00:00 1.5 4 Norte 7 Norte 0 -- -- 94
2018-01-15 00:00:00 2.2 5 Norte 9 Noroeste 0 -- -- 93
2018-01-14 23:00:00 3.4 3 Norte 8 Norte 0 -- -- 93
2018-01-14 22:00:00 3.6 4 Norte 9 Norte 0 -- -- 92
2018-01-14 21:00:00 4.9 3 Norte 7 Oeste 0 -- -- 90
2018-01-14 20:00:00 6.4 4 Noroeste 6 Oeste 0 -- -- 85
2018-01-14 19:00:00 8.3 3 Este 11 Nordeste 0 -- -- 81
2018-01-14 18:00:00 10.3 6 Norte 9 Nordeste 0 -- -- 74
2018-01-14 17:00:00 11.1 6 Noroeste 19 Oeste 0 -- -- 72
2018-01-14 16:00:00 13 13 Oeste 22 Noroeste 0 -- -- 64
2018-01-14 15:00:00 12.4 4 Noroeste 19 Oeste 0 -- -- 67
2018-01-14 14:00:00 12.8 8 Noroeste 19 Noroeste 0 -- -- 67
2018-01-14 13:00:00 11 15 Noroeste 22 Noroeste 0 -- -- 75
2018-01-14 12:00:00 9.2 9 Noroeste 16 Oeste 0 -- -- 87
2018-01-14 11:00:00 6.2 5 Sudoeste 9 Sudoeste 0 -- -- 95
2018-01-14 10:00:00 4.5 4 Sudoeste 9 Oeste 0 -- -- 100
2018-01-14 09:00:00 4.2 4 Oeste 9 Sudoeste 0 -- -- 99
2018-01-14 08:00:00 4.2 5 Sudoeste 6 Sudoeste 0 -- -- 98
2018-01-14 07:00:00 4.9 4 Oeste 13 Noroeste 0 -- -- 98
2018-01-14 06:00:00 5.8 5 Oeste 10 Oeste 0 -- -- 100
2018-01-14 05:00:00 5 4 Oeste 8 Oeste 0 -- -- 100
2018-01-14 04:00:00 4.9 3 Sudoeste 8 Sudoeste 0 -- -- 99
2018-01-14 03:00:00 5.1 6 Sudoeste 12 Sudoeste 0 -- -- 99
2018-01-14 02:00:00 4.9 4 Sur 6 Sur 0 -- -- 98
2018-01-14 01:00:00 5.2 8 Noroeste 14 Noroeste 0 -- -- 98
2018-01-14 00:00:00 5.1 5 Sudoeste 13 Sudoeste 0 -- -- 98
2018-01-13 23:00:00 4.7 3 Sur 5 Sudoeste 0 -- -- 96
2018-01-13 22:00:00 5.7 3 Sudoeste 6 Sudoeste 0 -- -- 95
2018-01-13 21:00:00 6.8 5 Sur 11 Sur 0 -- -- 93
2018-01-13 20:00:00 7.5 6 Sur 10 Sudoeste 0 -- -- 90
2018-01-13 19:00:00 8.3 3 Sudoeste 19 Noroeste 0 -- -- 88
2018-01-13 18:00:00 9.2 12 Noroeste 44 Noroeste 0.2 -- -- 85
2018-01-13 17:00:00 13.1 15 Noroeste 26 Noroeste 0 -- -- 64
2018-01-13 16:00:00 13.9 8 Noroeste 29 Noroeste 0 -- -- 72
2018-01-13 15:00:00 14.5 17 Noroeste 40 Oeste 0 -- -- 70
2018-01-13 14:00:00 12.1 22 Oeste 37 Oeste 0 -- -- 78
2018-01-13 13:00:00 10.4 14 Sudoeste 31 Sudoeste 0 -- -- 93
2018-01-13 12:00:00 8.4 12 Sudoeste 22 Sudoeste 0.2 -- -- 98
2018-01-13 11:00:00 7 13 Noroeste 26 Noroeste 1.8 -- -- 99
2018-01-13 10:00:00 6.5 8 Sudeste 21 Sudeste 2.8 -- -- 99
2018-01-13 09:00:00 5.9 4 Sudeste 9 Este 1.8 -- -- 99
2018-01-13 08:00:00 5.6 2 Sudeste 6 Nordeste 0.4 -- -- 97
2018-01-13 07:00:00 5.4 2 Nordeste 7 Nordeste 0 -- -- 97
2018-01-13 06:00:00 5.3 2 Nordeste 4 Nordeste 0 -- -- 96
2018-01-13 05:00:00 5.4 0 Calma 6 Sudoeste 0 -- -- 96
2018-01-13 04:00:00 5.2 4 Sudeste 9 Sudeste 0 -- -- 97
2018-01-13 03:00:00 4.9 4 Este 9 Este 0 -- -- 97
2018-01-13 02:00:00 4.3 2 Nordeste 5 Nordeste 0 -- -- 96
2018-01-13 01:00:00 4.3 3 Nordeste 5 Noroeste 0 -- -- 95
2018-01-13 00:00:00 5 0 Calma 4 Oeste 0 -- -- 94
2018-01-12 23:00:00 6.1 0 Calma 5 Noroeste 0 -- -- 90
2018-01-12 22:00:00 7 0 Calma 9 Sudeste 0 -- -- 88
2018-01-12 21:00:00 7.5 2 Sur 6 Este 0 -- -- 85
2018-01-12 20:00:00 7.6 0 Calma 7 Este 0 -- -- 84
2018-01-12 19:00:00 8.3 0 Calma 4 Sudeste 0 -- -- 78
2018-01-12 18:00:00 10.1 2 Sur 4 Sudoeste 0 -- -- 71
2018-01-12 17:00:00 11 2 Sur 8 Sur 0 -- -- 64
2018-01-12 16:00:00 11.3 3 Sur 6 Sur 0 -- -- 62
2018-01-12 15:00:00 10.8 0 Calma 8 Norte 0 -- -- 67
2018-01-12 14:00:00 10.1 0 Calma 7 Nordeste 0 -- -- 74
2018-01-12 13:00:00 8 4 Nordeste 8 Norte 0 -- -- 84
2018-01-12 12:00:00 5.6 5 Nordeste 10 Este 0 -- -- 92
2018-01-12 11:00:00 3.4 5 Nordeste 7 Nordeste 0 -- -- 100
2018-01-12 10:00:00 1 3 Norte 5 Norte 0 -- -- 100
2018-01-12 09:00:00 -0.2 0 Calma 4 Sudoeste 0 -- -- 99
2018-01-12 08:00:00 0.1 0 Calma 3 Nordeste 0 -- -- 99
2018-01-12 07:00:00 0.3 0 Calma 4 Noroeste 0 -- -- 98
2018-01-12 06:00:00 0.6 3 Norte 6 Noroeste 0 -- -- 98
2018-01-12 05:00:00 1.1 0 Calma 4 Sudeste 0 -- -- 97
2018-01-12 04:00:00 1.4 0 Calma 6 Oeste 0 -- -- 96
2018-01-12 03:00:00 2.5 2 Sudoeste 6 Oeste 0 -- -- 97
2018-01-12 02:00:00 2.5 3 Norte 5 Noroeste 0 -- -- 94
2018-01-12 01:00:00 3.8 2 Oeste 6 Oeste 0 -- -- 94
2018-01-12 00:00:00 4 2 Sur 8 Noroeste 0 -- -- 94
2018-01-11 23:00:00 4.7 0 Calma 14 Noroeste 0 -- -- 91
2018-01-11 22:00:00 6.3 9 Noroeste 15 Noroeste 0 -- -- 84
2018-01-11 21:00:00 7.8 5 Oeste 15 Noroeste 0 -- -- 77
2018-01-11 20:00:00 9 9 Oeste 15 Noroeste 0 -- -- 72
2018-01-11 19:00:00 10.4 8 Noroeste 19 Noroeste 0 -- -- 69
2018-01-11 18:00:00 12.3 9 Noroeste 34 Oeste 0 -- -- 63
2018-01-11 17:00:00 14.2 17 Noroeste 42 Noroeste 0 -- -- 54
2018-01-11 16:00:00 14.9 22 Noroeste 37 Oeste 0 -- -- 55
2018-01-11 15:00:00 13.7 21 Oeste 34 Oeste 0 -- -- 66
2018-01-11 14:00:00 14.1 22 Noroeste 41 Oeste 0 -- -- 65
2018-01-11 13:00:00 12.5 19 Oeste 31 Oeste 0 -- -- 77
2018-01-11 12:00:00 11.5 17 Noroeste 33 Oeste 0 -- -- 86
2018-01-11 11:00:00 8.3 9 Sudoeste 18 Oeste 0 -- -- 96
2018-01-11 10:00:00 6.6 9 Sudoeste 15 Sudoeste 0 -- -- 96
2018-01-11 09:00:00 5.9 5 Sudoeste 13 Sudoeste 0 -- -- 96
2018-01-11 08:00:00 5.8 8 Sudoeste 17 Oeste 0 -- -- 96
2018-01-11 07:00:00 6 7 Sudoeste 18 Oeste 0 -- -- 95
2018-01-11 06:00:00 5.2 3 Nordeste 7 Sur 0 -- -- 97
2018-01-11 05:00:00 5.5 0 Calma 15 Oeste 0 -- -- 96
2018-01-11 04:00:00 6.1 13 Sudoeste 21 Oeste 0 -- -- 93
2018-01-11 03:00:00 6 6 Sudoeste 13 Sudoeste 0 -- -- 95
2018-01-11 02:00:00 5.6 4 Sur 7 Sur 0 -- -- 96
2018-01-11 01:00:00 6.7 3 Noroeste 11 Noroeste 0 -- -- 91
2018-01-11 00:00:00 7.9 8 Noroeste 22 Oeste 0 -- -- 89
2018-01-10 23:00:00 8.9 13 Oeste 19 Oeste 0 -- -- 85
2018-01-10 22:00:00 9.6 6 Oeste 24 Noroeste 0 -- -- 81
2018-01-10 21:00:00 10 13 Oeste 30 Noroeste 0 -- -- 76
2018-01-10 20:00:00 10.7 14 Oeste 25 Oeste 0 -- -- 74
2018-01-10 19:00:00 11.3 10 Oeste 21 Oeste 0 -- -- 76
2018-01-10 18:00:00 12.6 11 Oeste 24 Oeste 0 -- -- 80
2018-01-10 17:00:00 13.3 19 Oeste 37 Oeste 0.4 -- -- 82
2018-01-10 16:00:00 13.1 26 Oeste 55 Oeste 0.6 -- -- 88
2018-01-10 15:00:00 15 18 Sudoeste 43 Sudoeste 0 -- -- 75
2018-01-10 14:00:00 13.7 22 Sudoeste 40 Sudoeste 0 -- -- 85
2018-01-10 13:00:00 13.3 19 Sudoeste 32 Sudoeste 0 -- -- 87
2018-01-10 12:00:00 11.6 12 Sudoeste 24 Sur 0 -- -- 97
2018-01-10 11:00:00 10.2 8 Sudoeste 14 Oeste 0 -- -- 100
2018-01-10 10:00:00 9 8 Sur 15 Sur 0 -- -- 100
2018-01-10 09:00:00 8.5 8 Sudoeste 16 Sudoeste 0 -- -- 100
2018-01-10 08:00:00 8.4 6 Sudoeste 10 Oeste 0 -- -- 100
2018-01-10 07:00:00 8.3 4 Sudoeste 7 Sudoeste 0 -- -- 100
2018-01-10 06:00:00 8 0 Calma 15 Sudoeste 0 -- -- 100
2018-01-10 05:00:00 7.8 4 Sudoeste 12 Sudoeste 0 -- -- 99
2018-01-10 04:00:00 8.2 4 Sur 8 Sur 0.2 -- -- 98
2018-01-10 03:00:00 8.3 0 Calma 15 Oeste 0 -- -- 97
2018-01-10 02:00:00 9.3 10 Oeste 21 Oeste 0 -- -- 99
2018-01-10 01:00:00 9.4 7 Noroeste 11 Noroeste 0 -- -- 99
2018-01-10 00:00:00 10.4 6 Oeste 16 Oeste 0 -- -- 100
2018-01-09 23:00:00 9.9 3 Sudoeste 9 Sudoeste 0.4 -- -- 100
2018-01-09 22:00:00 9.6 2 Nordeste 6 Nordeste 0 -- -- 99
2018-01-09 21:00:00 9.7 2 Este 8 Este 0.2 -- -- 99
2018-01-09 20:00:00 9.6 3 Este 7 Nordeste 0.2 -- -- 99
2018-01-09 19:00:00 10 0 Calma 13 Sur 1.2 -- -- 98
2018-01-09 18:00:00 10 6 Sur 17 Sur 1.6 -- -- 98
2018-01-09 17:00:00 10.1 6 Sur 23 Sur 0.2 -- -- 95
2018-01-09 16:00:00 10 12 Sudeste 23 Sudeste 0.4 -- -- 93
2018-01-09 15:00:00 9.9 13 Sur 29 Sur 0.2 -- -- 91
2018-01-09 14:00:00 8.9 16 Sur 31 Sur 0.2 -- -- 94
2018-01-09 13:00:00 6.6 12 Sur 28 Sur 1.2 -- -- 99
2018-01-09 12:00:00 5.4 0 Calma 8 Este 0.8 -- -- 97
2018-01-09 11:00:00 4.3 2 Este 7 Nordeste 0.2 -- -- 96
2018-01-09 10:00:00 3.6 3 Nordeste 6 Este 0 -- -- 97
2018-01-09 09:00:00 3 0 Calma 5 Nordeste 0 -- -- 99
2018-01-09 08:00:00 2.6 0 Calma 6 Este 0 -- -- 99
2018-01-09 07:00:00 2.3 0 Calma 4 Sudeste 0 -- -- 99
2018-01-09 06:00:00 1.6 0 Calma 4 Sudeste 0 -- -- 99
2018-01-09 05:00:00 0.9 0 Calma 3 Sudeste 0 -- -- 98
2018-01-09 04:00:00 1.3 0 Calma 6 Sudeste 0 -- -- 97
2018-01-09 03:00:00 1.9 3 Sudeste 5 Este 0 -- -- 98
2018-01-09 02:00:00 2 2 Sudoeste 6 Sudoeste 0 -- -- 97
2018-01-09 01:00:00 2.3 0 Calma 6 Sudoeste 0 -- -- 95
2018-01-09 00:00:00 3.1 3 Sudoeste 6 Sudoeste 0 -- -- 95
2018-01-08 23:00:00 3.2 2 Sudeste 4 Sudoeste 0 -- -- 93
2018-01-08 22:00:00 4.3 2 Noroeste 6 Sur 0 -- -- 90
2018-01-08 21:00:00 5 0 Calma 5 Sudoeste 0 -- -- 88
2018-01-08 20:00:00 6.2 2 Norte 5 Oeste 0 -- -- 84
2018-01-08 19:00:00 8 2 Noroeste 3 Oeste 0 -- -- 76
2018-01-08 18:00:00 10.3 0 Calma 8 Noroeste 0 -- -- 67
2018-01-08 17:00:00 11.9 5 Noroeste 14 Nordeste 0 -- -- 58
2018-01-08 16:00:00 12.1 5 Nordeste 12 Norte 0 -- -- 57
2018-01-08 15:00:00 11.3 5 Este 15 Este 0 -- -- 62
2018-01-08 14:00:00 10.1 5 Este 16 Sudeste 0 -- -- 68
2018-01-08 13:00:00 8.9 8 Nordeste 22 Nordeste 0 -- -- 75
2018-01-08 12:00:00 8.3 15 Nordeste 22 Norte 0 -- -- 82
2018-01-08 11:00:00 7 9 Norte 19 Norte 0 -- -- 91
2018-01-08 10:00:00 5.8 14 Nordeste 20 Norte 0 -- -- 93
2018-01-08 09:00:00 5 13 Norte 21 Nordeste 0 -- -- 94
2018-01-08 08:00:00 5.4 13 Nordeste 22 Nordeste 0 -- -- 95
2018-01-08 07:00:00 5.2 6 Nordeste 12 Nordeste 0 -- -- 98
2018-01-08 06:00:00 5 4 Norte 11 Nordeste 0 -- -- 97
2018-01-08 05:00:00 5 6 Nordeste 15 Nordeste 0.2 -- -- 96
2018-01-08 04:00:00 4.9 4 Nordeste 13 Nordeste 0 -- -- 97
2018-01-08 03:00:00 5 3 Este 9 Este 0.2 -- -- 96
2018-01-08 02:00:00 5 4 Este 13 Sudeste 0.2 -- -- 94
2018-01-08 01:00:00 5.3 7 Este 14 Este 2.2 -- -- 94
2018-01-08 00:00:00 5.8 3 Nordeste 11 Este 1.4 -- -- 96
2018-01-07 23:00:00 6.1 5 Nordeste 17 Nordeste 0.6 -- -- 95
2018-01-07 22:00:00 6.7 7 Nordeste 14 Nordeste 0.4 -- -- 91
2018-01-07 21:00:00 7.7 6 Nordeste 17 Norte 0 -- -- 83
2018-01-07 20:00:00 8 0 Calma 5 Norte 0 -- -- 80
2018-01-07 19:00:00 8.6 2 Norte 12 Norte 0 -- -- 74
2018-01-07 18:00:00 9.1 6 Noroeste 15 Noroeste 0 -- -- 68
2018-01-07 17:00:00 9.3 10 Noroeste 19 Noroeste 0 -- -- 66
2018-01-07 16:00:00 9.2 13 Noroeste 23 Oeste 0 -- -- 65
2018-01-07 15:00:00 9.3 13 Oeste 19 Noroeste 0 -- -- 59
2018-01-07 14:00:00 9.3 11 Oeste 21 Noroeste 0 -- -- 62
2018-01-07 13:00:00 9.3 9 Sur 16 Sur 0 -- -- 65
2018-01-07 12:00:00 6.8 6 Sudoeste 16 Oeste 0 -- -- 73
2018-01-07 11:00:00 5.5 5 Oeste 15 Oeste 0 -- -- 76
2018-01-07 10:00:00 4.6 4 Oeste 13 Oeste 0 -- -- 80
2018-01-07 09:00:00 4.2 5 Noroeste 17 Oeste 0 -- -- 82
2018-01-07 08:00:00 4.2 10 Noroeste 24 Noroeste 0 -- -- 81
2018-01-07 07:00:00 4.1 12 Noroeste 19 Noroeste 0 -- -- 82
2018-01-07 06:00:00 4.1 10 Noroeste 28 Noroeste 0 -- -- 83
2018-01-07 05:00:00 4.5 17 Noroeste 32 Noroeste 0 -- -- 82
2018-01-07 04:00:00 4.9 19 Noroeste 31 Noroeste 0 -- -- 81
2018-01-07 03:00:00 5.1 20 Noroeste 30 Oeste 0 -- -- 81
2018-01-07 02:00:00 4.6 11 Noroeste 24 Noroeste 0 -- -- 84
2018-01-07 01:00:00 4.2 15 Noroeste 25 Noroeste 0 -- -- 86
2018-01-07 00:00:00 4 10 Noroeste 22 Oeste 0 -- -- 85
2018-01-06 23:00:00 4.4 14 Noroeste 23 Noroeste 0 -- -- 81
2018-01-06 22:00:00 5.1 15 Noroeste 24 Noroeste 0 -- -- 76
2018-01-06 21:00:00 5.7 15 Noroeste 23 Noroeste 0 -- -- 73
2018-01-06 20:00:00 6.5 9 Oeste 18 Noroeste 0 -- -- 69
2018-01-06 19:00:00 8.3 13 Noroeste 30 Noroeste 0 -- -- 56
2018-01-06 18:00:00 10 14 Noroeste 35 Noroeste 0 -- -- 50
2018-01-06 17:00:00 11.9 20 Noroeste 37 Noroeste 0 -- -- 44
2018-01-06 16:00:00 12.5 21 Noroeste 44 Noroeste 0 -- -- 43
2018-01-06 15:00:00 12.2 24 Noroeste 39 Noroeste 0 -- -- 51
2018-01-06 14:00:00 11.6 22 Noroeste 38 Noroeste 0 -- -- 54
2018-01-06 13:00:00 11.3 17 Noroeste 31 Oeste 0 -- -- 61
2018-01-06 12:00:00 8.7 15 Noroeste 28 Noroeste 0 -- -- 73
2018-01-06 11:00:00 7.2 15 Noroeste 29 Oeste 0 -- -- 80
2018-01-06 10:00:00 5.5 14 Noroeste 27 Noroeste 0 -- -- 89
2018-01-06 09:00:00 5.1 7 Noroeste 17 Noroeste 0 -- -- 89
2018-01-06 08:00:00 5.8 8 Noroeste 19 Noroeste 0 -- -- 88
2018-01-06 07:00:00 6.4 11 Noroeste 19 Noroeste 0 -- -- 88
2018-01-06 06:00:00 6.8 12 Noroeste 19 Noroeste 0 -- -- 88
2018-01-06 05:00:00 7.1 11 Noroeste 20 Noroeste 0 -- -- 90
2018-01-06 04:00:00 7.5 9 Noroeste 14 Noroeste 0 -- -- 93
2018-01-06 03:00:00 8 10 Noroeste 17 Noroeste 0 -- -- 96
2018-01-06 02:00:00 8.2 8 Noroeste 15 Noroeste 0 -- -- 97
2018-01-06 01:00:00 8.6 8 Noroeste 16 Noroeste 0 -- -- 96
2018-01-06 00:00:00 9 4 Noroeste 11 Oeste 0 -- -- 96
2018-01-05 23:00:00 9.2 4 Oeste 12 Oeste 0 -- -- 98
2018-01-05 22:00:00 9.2 3 Oeste 13 Oeste 0.8 -- -- 97
2018-01-05 21:00:00 9.6 5 Noroeste 18 Noroeste 1.6 -- -- 96
2018-01-05 20:00:00 10.3 12 Noroeste 23 Sudoeste 0.8 -- -- 97
2018-01-05 19:00:00 10.6 9 Sudoeste 17 Sur 0.8 -- -- 97
2018-01-05 18:00:00 10.9 9 Sur 18 Sur 0.4 -- -- 97
2018-01-05 17:00:00 11.3 10 Sur 25 Sur 4 -- -- 98
2018-01-05 16:00:00 11.9 11 Sur 23 Sur 1.6 -- -- 97
2018-01-05 15:00:00 12.3 9 Sudoeste 21 Oeste 0 -- -- 96
2018-01-05 14:00:00 11.9 10 Sudoeste 27 Sur 0.4 -- -- 97
2018-01-05 13:00:00 11.8 19 Sur 36 Sudoeste 1 -- -- 96
2018-01-05 12:00:00 12.8 18 Sudoeste 44 Sudoeste 0.2 -- -- 87
2018-01-05 11:00:00 12.8 17 Sur 35 Sudoeste 0 -- -- 85
2018-01-05 10:00:00 11.9 18 Sur 33 Sudoeste 0 -- -- 90
2018-01-05 09:00:00 11.6 17 Sur 32 Sur 0 -- -- 91
2018-01-05 08:00:00 11.5 16 Sur 28 Sur 0 -- -- 91
2018-01-05 07:00:00 11.6 9 Sur 19 Sur 0 -- -- 93
2018-01-05 06:00:00 11.7 9 Sudoeste 22 Sudoeste 0 -- -- 95
2018-01-05 05:00:00 11.4 9 Sur 13 Sur 0 -- -- 96
2018-01-05 04:00:00 11.4 5 Sudoeste 19 Sudoeste 0.2 -- -- 97
2018-01-05 03:00:00 11.8 14 Sudoeste 24 Sudoeste 0 -- -- 91
2018-01-05 02:00:00 12 6 Sudoeste 26 Sudoeste 0 -- -- 94
2018-01-05 01:00:00 12.8 11 Sudoeste 24 Sudoeste 0 -- -- 89
2018-01-05 00:00:00 12.8 9 Sudoeste 19 Sudoeste 0 -- -- 90
2018-01-04 23:00:00 12.1 4 Sudoeste 17 Sudoeste 0 -- -- 93
2018-01-04 22:00:00 12.1 7 Oeste 13 Sudoeste 0 -- -- 93
2018-01-04 21:00:00 12.7 5 Sudoeste 10 Sudoeste 0 -- -- 88
2018-01-04 20:00:00 13.6 6 Sudoeste 12 Sudoeste 0 -- -- 86
2018-01-04 19:00:00 14.9 5 Sudoeste 12 Sudoeste 0 -- -- 81
2018-01-04 18:00:00 15.5 4 Sudoeste 13 Oeste 0 -- -- 78
2018-01-04 17:00:00 15.8 6 Oeste 26 Noroeste 0 -- -- 76
2018-01-04 16:00:00 16.1 14 Oeste 22 Oeste 0 -- -- 74
2018-01-04 15:00:00 15.8 10 Oeste 19 Sudoeste 0 -- -- 77
2018-01-04 14:00:00 16.1 8 Oeste 17 Sudoeste 0 -- -- 81
2018-01-04 13:00:00 15.1 7 Oeste 14 Oeste 0 -- -- 85
2018-01-04 12:00:00 14.4 3 Sudoeste 8 Oeste 0 -- -- 89
2018-01-04 11:00:00 12.9 3 Sur 8 Noroeste 0 -- -- 98
2018-01-04 10:00:00 11.4 3 Noroeste 8 Oeste 0 -- -- 100
2018-01-04 09:00:00 9.4 2 Oeste 8 Oeste 0 -- -- 95
2018-01-04 08:00:00 11 3 Oeste 5 Sudoeste 0 -- -- 96
2018-01-04 07:00:00 11.1 3 Oeste 7 Oeste 0 -- -- 97
2018-01-04 06:00:00 10.9 6 Sudoeste 9 Oeste 0 -- -- 94
2018-01-04 05:00:00 12.3 3 Sur 15 Oeste 0 -- -- 91
2018-01-04 04:00:00 13.3 6 Oeste 15 Oeste 0 -- -- 94
2018-01-04 03:00:00 13.1 5 Oeste 13 Oeste 0 -- -- 94
2018-01-04 02:00:00 14 6 Oeste 12 Oeste 0 -- -- 91
2018-01-04 01:00:00 13.7 5 Sudoeste 8 Sudoeste 0 -- -- 96
2018-01-04 00:00:00 13.7 5 Sudoeste 12 Sudoeste 0 -- -- 96
2018-01-03 23:00:00 14.1 6 Oeste 13 Oeste 0 -- -- 95
2018-01-03 22:00:00 13.8 7 Oeste 14 Oeste 0 -- -- 95
2018-01-03 21:00:00 13.9 8 Oeste 15 Oeste 0 -- -- 91
2018-01-03 20:00:00 14.8 9 Oeste 23 Noroeste 0 -- -- 89
2018-01-03 19:00:00 14.6 11 Noroeste 18 Noroeste 0 -- -- 87
2018-01-03 18:00:00 15.7 10 Noroeste 21 Oeste 0 -- -- 81
2018-01-03 17:00:00 16.6 14 Noroeste 23 Noroeste 0 -- -- 78
2018-01-03 16:00:00 16.6 7 Oeste 20 Oeste 0 -- -- 79
2018-01-03 15:00:00 16.2 11 Oeste 20 Oeste 0 -- -- 80
2018-01-03 14:00:00 16.6 12 Noroeste 22 Noroeste 0 -- -- 80
2018-01-03 13:00:00 15.5 7 Noroeste 15 Noroeste 0 -- -- 85
2018-01-03 12:00:00 13.9 0 Calma 6 Sur 0 -- -- 92
2018-01-03 11:00:00 12.4 3 Sur 7 Sur 0 -- -- 99
2018-01-03 10:00:00 11.3 4 Sudeste 6 Sudoeste 0 -- -- 100
2018-01-03 09:00:00 10.6 2 Sudoeste 8 Sur 0 -- -- 98
2018-01-03 08:00:00 11.2 4 Sur 10 Sudoeste 0 -- -- 97
2018-01-03 07:00:00 11.7 4 Sudoeste 10 Oeste 0 -- -- 98
2018-01-03 06:00:00 11.9 4 Sudoeste 8 Sur 0 -- -- 96
2018-01-03 05:00:00 12.3 3 Noroeste 7 Sudoeste 0 -- -- 95
2018-01-03 04:00:00 12.5 5 Sudoeste 17 Sudoeste 0 -- -- 94
2018-01-03 03:00:00 12.4 2 Sudoeste 10 Oeste 0 -- -- 92
2018-01-03 02:00:00 12.3 6 Sudoeste 10 Oeste 0 -- -- 91
2018-01-03 01:00:00 12.1 5 Oeste 14 Sudoeste 0 -- -- 90
2018-01-03 00:00:00 12.5 9 Sudoeste 14 Sudoeste 0 -- -- 88
2018-01-02 23:00:00 12.7 4 Sudoeste 10 Oeste 0 -- -- 86
2018-01-02 22:00:00 12.7 4 Sudoeste 9 Oeste 0 -- -- 86
2018-01-02 21:00:00 13.1 4 Sudoeste 8 Sudoeste 0 -- -- 84
2018-01-02 20:00:00 13.2 5 Sudoeste 10 Oeste 0 -- -- 83
2018-01-02 19:00:00 13 2 Sudoeste 7 Sudoeste 0 -- -- 84
2018-01-02 18:00:00 13.8 3 Oeste 15 Noroeste 0 -- -- 80
2018-01-02 17:00:00 14.4 10 Oeste 19 Oeste 0 -- -- 77
2018-01-02 16:00:00 14.6 12 Oeste 20 Noroeste 0 -- -- 75
2018-01-02 15:00:00 15 6 Noroeste 24 Oeste 0 -- -- 76
2018-01-02 14:00:00 15.1 14 Noroeste 28 Noroeste 0 -- -- 73
2018-01-02 13:00:00 14 6 Noroeste 12 Oeste 0 -- -- 82
2018-01-02 12:00:00 9.5 7 Sudoeste 11 Sudoeste 0 -- -- 94
2018-01-02 11:00:00 6.9 3 Oeste 10 Sudoeste 0 -- -- 100
2018-01-02 10:00:00 5 0 Calma 8 Oeste 0 -- -- 100
2018-01-02 09:00:00 4.2 5 Oeste 9 Oeste 0 -- -- 100
2018-01-02 08:00:00 4.2 0 Calma 7 Sudoeste 0 -- -- 100
2018-01-02 07:00:00 3.8 3 Sudoeste 6 Sudoeste 0 -- -- 100
2018-01-02 06:00:00 3.3 2 Sudoeste 9 Sudoeste 0 -- -- 98
2018-01-02 05:00:00 3.7 4 Sudoeste 6 Oeste 0 -- -- 97
2018-01-02 04:00:00 5.3 5 Sudoeste 8 Sudoeste 0 -- -- 100
2018-01-02 03:00:00 4.1 4 Sudoeste 6 Sudoeste 0 -- -- 96
2018-01-02 02:00:00 5.6 3 Sudoeste 7 Sur 0 -- -- 96
2018-01-02 01:00:00 6.1 0 Calma 5 Oeste 0 -- -- 96
2018-01-02 00:00:00 6.8 4 Noroeste 8 Oeste 0 -- -- 94
2018-01-01 23:00:00 8.4 3 Sudoeste 6 Oeste 0 -- -- 88
2018-01-01 22:00:00 9.1 0 Calma 10 Oeste 0 -- -- 88
2018-01-01 21:00:00 9.6 6 Oeste 9 Oeste 0 -- -- 88
2018-01-01 20:00:00 10.9 4 Sur 6 Sur 0 -- -- 84
2018-01-01 19:00:00 11.8 3 Oeste 6 Noroeste 0 -- -- 79
2018-01-01 18:00:00 13.6 6 Oeste 16 Oeste 0 -- -- 70
2018-01-01 17:00:00 14.1 10 Oeste 24 Noroeste 0 -- -- 68
2018-01-01 16:00:00 14.7 16 Noroeste 28 Oeste 0 -- -- 66
2018-01-01 15:00:00 15.3 15 Oeste 26 Oeste 0 -- -- 64
2018-01-01 14:00:00 13.3 5 Sur 10 Sudoeste 0 -- -- 74
2018-01-01 13:00:00 10.7 6 Sur 11 Sudeste 0 -- -- 81
2018-01-01 12:00:00 7.4 2 Norte 6 Norte 0 -- -- 100
2018-01-01 11:00:00 4.7 3 Sudeste 6 Este 0 -- -- 100
2018-01-01 10:00:00 3.2 0 Calma 6 Sudoeste 0 -- -- 100
2018-01-01 09:00:00 2.8 0 Calma 5 Norte 0 -- -- 100
2018-01-01 08:00:00 3.3 3 Oeste 5 Oeste 0 -- -- 100
2018-01-01 07:00:00 3.8 2 Sur 6 Nordeste 0 -- -- 100
2018-01-01 06:00:00 2.5 4 Nordeste 8 Norte 0 -- -- 99
2018-01-01 05:00:00 3 3 Norte 5 Norte 0 -- -- 98
2018-01-01 04:00:00 4.2 2 Sudeste 6 Sudeste 0 -- -- 99
2018-01-01 03:00:00 4.5 2 Norte 5 Noroeste 0 -- -- 97
2018-01-01 02:00:00 5.5 3 Noroeste 5 Noroeste 0 -- -- 97
2018-01-01 01:00:00 5.6 3 Oeste 9 Noroeste 0 -- -- 96
2018-01-01 00:00:00 6.4 7 Noroeste 9 Noroeste 0 -- -- 92
2017-12-31 23:00:00 8 0 Calma 12 Oeste 0 -- -- 91
2017-12-31 22:00:00 9.8 7 Oeste 15 Oeste 0 -- -- 87
2017-12-31 21:00:00 10.4 8 Oeste 16 Noroeste 0 -- -- 86
2017-12-31 20:00:00 10.9 9 Noroeste 20 Oeste 0 -- -- 84
2017-12-31 19:00:00 11.7 11 Oeste 20 Oeste 0 -- -- 83
2017-12-31 18:00:00 13.2 17 Noroeste 33 Noroeste 0 -- -- 76
2017-12-31 17:00:00 14.4 22 Noroeste 38 Oeste 0 -- -- 77
2017-12-31 16:00:00 13.7 22 Oeste 47 Sudoeste 0.2 -- -- 90
2017-12-31 15:00:00 15.6 21 Sudoeste 40 Sudoeste 0 -- -- 73
2017-12-31 14:00:00 15.2 18 Sudoeste 35 Sudoeste 0 -- -- 77
2017-12-31 13:00:00 13.3 15 Sudoeste 27 Sur 0 -- -- 84
2017-12-31 12:00:00 10.6 7 Sudoeste 16 Oeste 0 -- -- 94
2017-12-31 11:00:00 9.5 6 Sur 17 Sudoeste 0 -- -- 96
2017-12-31 10:00:00 8.7 6 Sudoeste 15 Sur 0 -- -- 98
2017-12-31 09:00:00 7.5 9 Sur 12 Sur 0 -- -- 99
2017-12-31 08:00:00 7.7 5 Sudoeste 9 Sur 0 -- -- 99
2017-12-31 07:00:00 7.3 0 Calma 5 Sudeste 0 -- -- 98
2017-12-31 06:00:00 6.8 2 Sudeste 4 Sudeste 0 -- -- 97
2017-12-31 05:00:00 7.5 4 Oeste 7 Noroeste 0 -- -- 95
2017-12-31 04:00:00 9.1 2 Sur 5 Sudeste 0 -- -- 94
2017-12-31 03:00:00 10 4 Sur 8 Sur 0 -- -- 92
2017-12-31 02:00:00 10.3 2 Sur 8 Sudoeste 0 -- -- 93
2017-12-31 01:00:00 10.4 3 Sudoeste 5 Sudoeste 0 -- -- 93